Time;durP1;ratioP1;P1;durP2;ratioP2;P2;SDS_P1;SDS_P2;PMS_P1;PMS_P2;Temp;Humidity;BMP_temperature;BMP_pressure;BME280_temperature;BME280_humidity;BME280_pressure;Samples;Min_cycle;Max_cycle;Signal;HPM_P1;HPM_P2
2023/06/20 00:00:34;;;;;;;21.30;11.70;;;;;;;19.07;72.77;100185.17;110283;1277;22319;-60
2023/06/20 00:03:25;;;;;;;22.50;11.60;;;;;;;19.04;72.86;100183.89;110273;1270;22173;-61
2023/06/20 00:05:56;;;;;;;20.50;11.90;;;;;;;19.01;72.91;100181.89;110355;1269;22344;-61
2023/06/20 00:08:27;;;;;;;22.50;12.60;;;;;;;18.97;72.97;100179.11;110311;1262;22628;-60
2023/06/20 00:10:58;;;;;;;23.00;12.90;;;;;;;18.92;73.18;100175.91;110343;1271;22231;-59
2023/06/20 00:13:29;;;;;;;23.50;12.80;;;;;;;18.84;73.29;100177.89;110337;1272;22142;-60
2023/06/20 00:16:01;;;;;;;25.30;12.50;;;;;;;18.78;73.65;100173.09;110337;1275;22432;-61
2023/06/20 00:18:31;;;;;;;24.70;13.40;;;;;;;18.72;73.78;100172.26;110344;1270;23097;-62
2023/06/20 00:21:02;;;;;;;21.40;12.50;;;;;;;18.66;73.99;100175.23;110330;1271;22157;-61
2023/06/20 00:23:33;;;;;;;21.80;12.20;;;;;;;18.60;74.03;100176.25;110389;1271;22336;-61
2023/06/20 00:26:04;;;;;;;23.20;12.60;;;;;;;18.51;74.37;100178.02;110336;1276;22176;-60
2023/06/20 00:28:35;;;;;;;23.50;13.30;;;;;;;18.47;74.38;100175.82;110256;1274;22412;-58
2023/06/20 00:31:06;;;;;;;21.70;12.60;;;;;;;18.44;74.48;100172.25;110287;1270;22892;-61
2023/06/20 00:33:37;;;;;;;27.50;13.60;;;;;;;18.40;74.64;100166.42;110306;1267;22175;-59
2023/06/20 00:36:08;;;;;;;21.30;12.50;;;;;;;18.35;74.67;100164.95;110346;1271;22182;-59
2023/06/20 00:38:39;;;;;;;22.40;11.90;;;;;;;18.32;74.78;100159.70;109895;1273;22597;-59
2023/06/20 00:41:10;;;;;;;21.60;12.60;;;;;;;18.28;74.65;100155.86;106524;1271;22572;-61
2023/06/20 00:43:41;;;;;;;24.60;14.40;;;;;;;18.24;74.95;100154.45;106601;1270;23934;-58
2023/06/20 00:46:12;;;;;;;25.00;13.20;;;;;;;18.20;75.09;100158.02;106562;1269;22571;-59
2023/06/20 00:48:43;;;;;;;29.40;13.90;;;;;;;18.14;75.35;100159.06;102522;1276;5533207;-56
2023/06/20 00:51:16;;;;;;;23.60;13.80;;;;;;;18.09;75.46;100158.98;106578;1276;24619;-60
2023/06/20 00:53:48;;;;;;;23.30;12.30;;;;;;;18.06;75.33;100152.86;106689;1276;22524;-59
2023/06/20 00:56:20;;;;;;;22.50;13.30;;;;;;;18.08;75.34;100148.27;109825;1274;24398;-58
2023/06/20 00:58:51;;;;;;;26.90;14.00;;;;;;;18.10;75.50;100152.91;106614;1273;22559;-60
2023/06/20 01:01:22;;;;;;;26.80;13.80;;;;;;;18.09;75.55;100157.50;106611;1264;22589;-58
2023/06/20 01:03:56;;;;;;;25.60;14.60;;;;;;;18.08;75.62;100155.46;110272;1273;22361;-60
2023/06/20 01:06:33;;;;;;;22.30;13.50;;;;;;;18.06;75.88;100155.48;110342;1273;23040;-62
2023/06/20 01:09:16;;;;;;;22.40;13.60;;;;;;;18.03;75.85;100151.30;110333;1270;22312;-58
2023/06/20 01:11:56;;;;;;;21.40;12.80;;;;;;;18.00;75.93;100151.75;110319;1270;22299;-60
2023/06/20 01:14:35;;;;;;;25.80;14.90;;;;;;;17.97;76.04;100151.80;110307;1269;23032;-61
2023/06/20 01:17:10;;;;;;;23.60;13.60;;;;;;;17.90;76.22;100151.21;110262;1269;22196;-59
2023/06/20 01:20:07;;;;;;;26.10;14.50;;;;;;;17.81;76.45;100146.38;110209;1267;22458;-61
2023/06/20 01:22:48;;;;;;;24.90;14.00;;;;;;;17.74;76.49;100145.40;110252;1270;22330;-61
2023/06/20 01:25:31;;;;;;;24.30;13.20;;;;;;;17.68;76.60;100150.55;110239;1270;22228;-60
2023/06/20 01:28:09;;;;;;;24.00;13.50;;;;;;;17.62;76.70;100155.95;110240;1267;22149;-60
2023/06/20 01:30:47;;;;;;;22.50;13.00;;;;;;;17.55;76.79;100154.75;110235;1278;23053;-61
2023/06/20 01:33:24;;;;;;;23.90;13.80;;;;;;;17.50;76.87;100152.48;110247;1269;22201;-60
2023/06/20 01:35:56;;;;;;;23.30;13.60;;;;;;;17.48;77.11;100150.17;110236;1270;22374;-58
2023/06/20 01:38:31;;;;;;;20.60;12.80;;;;;;;17.46;77.06;100145.46;110233;1270;22274;-60
2023/06/20 01:41:05;;;;;;;25.70;14.50;;;;;;;17.43;77.25;100140.89;110242;1265;23034;-59
2023/06/20 01:43:37;;;;;;;21.50;12.70;;;;;;;17.40;77.30;100142.60;110229;1270;22273;-62
2023/06/20 01:46:10;;;;;;;21.60;13.00;;;;;;;17.39;77.39;100144.52;110276;1264;22370;-60
2023/06/20 01:48:43;;;;;;;23.70;13.90;;;;;;;17.35;77.40;100146.50;110246;1270;23075;-60
2023/06/20 01:51:17;;;;;;;24.70;14.20;;;;;;;17.30;77.61;100145.47;110242;1270;22200;-58
2023/06/20 01:53:49;;;;;;;25.40;14.30;;;;;;;17.28;77.73;100146.30;110250;1273;22897;-59
2023/06/20 01:56:21;;;;;;;21.00;12.90;;;;;;;17.26;77.94;100145.92;110261;1270;22349;-61
2023/06/20 01:58:53;;;;;;;24.80;13.90;;;;;;;17.24;77.84;100144.76;110241;1265;22468;-61
2023/06/20 02:01:25;;;;;;;25.50;15.00;;;;;;;17.22;77.92;100140.36;110262;1262;23215;-60
2023/06/20 02:03:57;;;;;;;23.80;13.10;;;;;;;17.20;78.03;100142.13;110249;1278;22214;-59
2023/06/20 02:06:30;;;;;;;23.10;13.70;;;;;;;17.15;78.11;100139.83;110273;1267;22198;-59
2023/06/20 02:09:02;;;;;;;25.80;14.30;;;;;;;17.12;78.30;100144.11;110263;1267;22222;-61
2023/06/20 02:11:35;;;;;;;25.90;14.40;;;;;;;17.08;78.29;100140.91;110262;1270;23334;-61
2023/06/20 02:14:07;;;;;;;23.40;13.80;;;;;;;17.05;78.30;100136.73;110240;1270;22159;-60
2023/06/20 02:16:39;;;;;;;25.60;14.70;;;;;;;17.04;78.51;100138.35;110256;1266;22154;-61
2023/06/20 02:19:11;;;;;;;29.30;14.80;;;;;;;16.99;78.77;100136.17;109363;1277;22558;-61
2023/06/20 02:21:45;;;;;;;24.30;13.40;;;;;;;16.95;78.72;100137.03;107005;1278;22681;-60
2023/06/20 02:24:20;;;;;;;27.90;15.40;;;;;;;16.92;78.80;100133.92;110319;1270;22635;-60
2023/06/20 02:26:52;;;;;;;23.00;14.10;;;;;;;16.92;78.67;100130.38;110243;1274;22902;-61
2023/06/20 02:29:27;;;;;;;25.40;13.30;;;;;;;16.92;78.89;100132.63;107409;1266;23896;-61
2023/06/20 02:32:00;;;;;;;24.90;13.50;;;;;;;16.90;79.00;100129.31;110243;1270;22376;-62
2023/06/20 02:34:33;;;;;;;24.30;13.90;;;;;;;16.86;79.12;100131.40;110237;1270;22306;-59
2023/06/20 02:37:05;;;;;;;24.60;12.50;;;;;;;16.82;79.15;100130.02;110267;1270;22297;-61
2023/06/20 02:39:36;;;;;;;23.30;13.30;;;;;;;16.79;79.26;100134.30;110270;1277;22263;-61
2023/06/20 02:42:08;;;;;;;22.00;12.80;;;;;;;16.75;79.16;100133.60;110256;1267;23441;-61
2023/06/20 02:44:39;;;;;;;20.60;12.70;;;;;;;16.73;79.35;100135.92;110252;1267;22940;-59
2023/06/20 02:47:18;;;;;;;22.10;12.80;;;;;;;16.71;79.52;100141.73;110266;1270;22182;-60
2023/06/20 02:50:00;;;;;;;23.10;12.80;;;;;;;16.67;79.58;100137.15;110291;1269;22165;-60
2023/06/20 02:52:40;;;;;;;22.50;13.40;;;;;;;16.62;79.62;100138.94;110221;1270;22349;-58
2023/06/20 02:55:16;;;;;;;23.50;13.20;;;;;;;16.59;79.86;100145.31;110277;1262;22427;-61
2023/06/20 02:57:53;;;;;;;22.50;13.70;;;;;;;16.55;79.84;100149.58;110305;1277;22257;-62
2023/06/20 03:00:25;;;;;;;26.20;13.80;;;;;;;16.52;80.02;100153.38;110268;1267;22320;-61
2023/06/20 03:03:07;;;;;;;23.70;13.20;;;;;;;16.50;80.25;100158.47;110279;1262;22292;-60
2023/06/20 03:05:42;;;;;;;24.10;13.60;;;;;;;16.47;80.28;100161.74;110270;1270;22230;-60
2023/06/20 03:08:14;;;;;;;23.50;12.60;;;;;;;16.45;80.41;100159.77;110286;1270;22195;-60
2023/06/20 03:10:46;;;;;;;27.30;14.20;;;;;;;16.43;80.46;100158.85;110258;1270;22158;-60
2023/06/20 03:13:18;;;;;;;23.30;13.10;;;;;;;16.41;80.54;100158.40;110270;1262;22389;-60
2023/06/20 03:15:49;;;;;;;27.50;13.80;;;;;;;16.40;80.67;100154.16;110250;1277;22255;-60
2023/06/20 03:18:20;;;;;;;22.20;13.80;;;;;;;16.40;80.68;100155.04;110264;1269;22342;-59
2023/06/20 03:20:52;;;;;;;22.70;13.60;;;;;;;16.38;80.88;100155.10;110262;1267;22184;-61
2023/06/20 03:23:22;;;;;;;25.20;13.40;;;;;;;16.36;80.89;100151.93;110266;1263;22235;-61
2023/06/20 03:25:53;;;;;;;25.50;13.20;;;;;;;16.34;80.99;100149.02;110253;1270;22339;-61
2023/06/20 03:28:24;;;;;;;23.00;13.10;;;;;;;16.33;81.13;100153.02;110291;1270;22366;-60
2023/06/20 03:30:55;;;;;;;20.90;11.90;;;;;;;16.33;81.32;100156.45;110242;1277;22131;-61
2023/06/20 03:33:26;;;;;;;35.60;14.70;;;;;;;16.32;81.39;100156.82;110287;1264;22194;-61
2023/06/20 03:35:57;;;;;;;25.60;13.80;;;;;;;16.33;81.55;100161.27;110274;1269;22213;-59
2023/06/20 03:38:28;;;;;;;23.30;13.40;;;;;;;16.34;81.66;100166.64;110238;1270;22213;-61
2023/06/20 03:41:00;;;;;;;25.20;14.60;;;;;;;16.34;81.89;100168.80;110267;1261;22189;-59
2023/06/20 03:43:31;;;;;;;32.80;16.00;;;;;;;16.36;81.90;100174.57;110268;1270;22338;-59
2023/06/20 03:46:02;;;;;;;23.90;13.90;;;;;;;16.38;82.08;100177.79;110341;1270;22178;-62
2023/06/20 03:48:33;;;;;;;27.00;15.00;;;;;;;16.41;82.32;100175.88;110354;1276;22449;-59
2023/06/20 03:51:03;;;;;;;26.30;14.50;;;;;;;16.43;82.39;100181.70;110323;1270;22870;-62
2023/06/20 03:53:34;;;;;;;24.30;14.30;;;;;;;16.47;82.53;100177.33;110267;1270;22153;-59
2023/06/20 03:56:06;;;;;;;26.80;15.80;;;;;;;16.51;82.55;100183.94;110280;1273;22174;-61
2023/06/20 03:58:37;;;;;;;27.10;15.40;;;;;;;16.56;82.59;100186.15;110279;1270;22333;-62
2023/06/20 04:01:08;;;;;;;26.10;14.70;;;;;;;16.61;82.65;100183.07;110328;1262;22339;-61
2023/06/20 04:03:38;;;;;;;28.70;15.60;;;;;;;16.66;82.82;100176.00;110344;1262;22239;-61
2023/06/20 04:06:09;;;;;;;24.30;14.70;;;;;;;16.72;82.93;100179.29;108015;1270;22479;-59
2023/06/20 04:08:42;;;;;;;25.80;14.90;;;;;;;16.78;82.90;100181.72;106667;1270;25962;-59
2023/06/20 04:11:14;;;;;;;30.20;17.50;;;;;;;16.84;82.91;100183.77;106541;1271;25958;-60
2023/06/20 04:13:45;;;;;;;25.70;15.00;;;;;;;16.91;82.99;100189.09;106578;1266;22536;-58
2023/06/20 04:16:16;;;;;;;28.90;17.10;;;;;;;16.98;83.25;100187.55;106583;1270;23908;-59
2023/06/20 04:18:46;;;;;;;27.10;15.80;;;;;;;17.05;83.10;100189.14;106910;1269;25567;-64
2023/06/20 04:21:17;;;;;;;29.40;16.70;;;;;;;17.12;83.50;100182.63;106884;1261;22511;-63
2023/06/20 04:23:48;;;;;;;33.80;17.50;;;;;;;17.19;83.72;100180.92;106358;1276;26527;-61
2023/06/20 04:26:19;;;;;;;29.20;17.60;;;;;;;17.27;83.80;100180.95;106476;1259;22742;-55
2023/06/20 04:28:50;;;;;;;29.40;17.30;;;;;;;17.34;83.74;100180.17;106623;1270;23122;-55
2023/06/20 04:31:21;;;;;;;30.00;16.90;;;;;;;17.42;83.94;100177.17;106546;1262;24687;-55
2023/06/20 04:33:54;;;;;;;33.30;18.40;;;;;;;17.48;83.96;100176.55;106583;1269;22537;-57
2023/06/20 04:36:26;;;;;;;29.50;17.20;;;;;;;17.57;83.73;100181.56;106460;1262;22636;-57
2023/06/20 04:38:57;;;;;;;27.90;17.20;;;;;;;17.67;83.94;100182.07;106558;1265;24623;-57
2023/06/20 04:41:28;;;;;;;31.50;18.70;;;;;;;17.81;84.20;100174.53;106599;1273;22644;-62
2023/06/20 04:44:00;;;;;;;29.70;18.10;;;;;;;17.92;84.14;100177.27;106437;1276;22523;-62
2023/06/20 04:46:31;;;;;;;33.70;18.60;;;;;;;18.03;84.44;100168.77;106413;1267;22520;-67
2023/06/20 04:49:02;;;;;;;29.60;18.60;;;;;;;18.13;84.27;100169.61;106449;1276;24491;-63
2023/06/20 04:51:33;;;;;;;30.00;19.10;;;;;;;18.24;84.41;100165.00;106393;1278;22690;-62
2023/06/20 04:54:05;;;;;;;26.70;16.00;;;;;;;18.35;84.48;100167.38;106347;1273;22513;-62
2023/06/20 04:56:40;;;;;;;27.60;17.30;;;;;;;18.45;84.54;100169.45;110247;1269;22242;-62
2023/06/20 04:59:12;;;;;;;31.20;19.80;;;;;;;18.58;84.29;100168.01;110240;1270;22826;-62
2023/06/20 05:01:44;;;;;;;27.60;17.50;;;;;;;18.70;84.31;100166.80;110210;1262;22246;-62
2023/06/20 05:04:16;;;;;;;27.00;17.60;;;;;;;18.82;84.21;100165.83;110230;1273;22357;-63
2023/06/20 05:06:47;;;;;;;27.00;17.10;;;;;;;18.96;84.05;100168.34;110260;1270;22830;-62
2023/06/20 05:09:18;;;;;;;27.40;16.40;;;;;;;19.11;84.04;100168.73;110239;1270;22210;-62
2023/06/20 05:11:49;;;;;;;28.00;17.00;;;;;;;19.27;83.86;100173.63;110275;1270;22271;-64
2023/06/20 05:14:20;;;;;;;27.90;15.80;;;;;;;19.42;83.41;100169.73;110269;1270;22241;-62
2023/06/20 05:16:51;;;;;;;26.60;15.80;;;;;;;19.56;83.28;100175.09;110261;1267;22260;-63
2023/06/20 05:19:23;;;;;;;29.20;16.60;;;;;;;19.71;82.91;100181.96;110301;1270;22200;-63
2023/06/20 05:21:54;;;;;;;26.00;15.70;;;;;;;19.83;82.82;100180.79;110301;1276;22299;-62
2023/06/20 05:24:25;;;;;;;27.60;16.80;;;;;;;19.97;82.31;100176.04;110299;1270;23228;-62
2023/06/20 05:26:57;;;;;;;28.30;16.60;;;;;;;20.08;82.29;100173.49;110263;1269;22276;-63
2023/06/20 05:29:28;;;;;;;25.40;15.20;;;;;;;20.21;82.14;100174.48;110256;1270;22177;-62
2023/06/20 05:32:00;;;;;;;25.80;16.60;;;;;;;20.33;81.97;100175.55;110253;1270;22159;-62
2023/06/20 05:34:31;;;;;;;26.20;15.70;;;;;;;20.46;81.68;100170.48;110280;1270;23106;-62
2023/06/20 05:37:02;;;;;;;24.70;15.00;;;;;;;20.57;81.22;100173.41;110280;1277;22364;-63
2023/06/20 05:39:33;;;;;;;27.40;15.90;;;;;;;20.71;81.26;100175.27;110282;1270;22304;-61
2023/06/20 05:42:05;;;;;;;26.30;15.20;;;;;;;20.81;80.62;100183.48;110280;1266;22260;-63
2023/06/20 05:44:37;;;;;;;26.40;15.30;;;;;;;20.88;80.37;100183.73;110239;1262;23134;-62
2023/06/20 05:47:17;;;;;;;24.40;14.80;;;;;;;20.94;80.10;100186.37;110279;1273;22218;-63
2023/06/20 05:49:49;;;;;;;26.20;15.00;;;;;;;21.02;80.02;100188.31;110258;1270;22251;-64
2023/06/20 05:52:21;;;;;;;25.30;14.90;;;;;;;21.12;79.76;100193.56;110249;1277;22946;-62
2023/06/20 05:54:54;;;;;;;23.90;14.40;;;;;;;21.22;79.88;100198.02;110301;1273;23048;-62
2023/06/20 05:57:25;;;;;;;23.80;13.50;;;;;;;21.32;79.53;100207.80;110266;1270;22181;-62
2023/06/20 05:59:56;;;;;;;29.80;15.60;;;;;;;21.43;79.19;100208.84;110272;1277;22925;-64
2023/06/20 06:02:28;;;;;;;26.50;15.30;;;;;;;21.52;78.95;100211.38;110274;1270;22198;-62
2023/06/20 06:04:59;;;;;;;24.90;14.00;;;;;;;21.58;78.55;100216.23;110285;1270;22158;-64
2023/06/20 06:07:30;;;;;;;26.30;16.00;;;;;;;21.67;78.50;100218.46;110274;1270;23148;-62
2023/06/20 06:10:03;;;;;;;26.50;14.00;;;;;;;21.80;78.43;100217.63;110286;1273;22169;-63
2023/06/20 06:12:35;;;;;;;28.60;15.00;;;;;;;21.94;78.04;100219.42;110234;1270;22244;-63
2023/06/20 06:15:12;;;;;;;27.00;16.80;;;;;;;22.04;77.73;100220.48;110306;1262;22317;-64
2023/06/20 06:17:45;;;;;;;24.20;13.90;;;;;;;22.14;77.28;100223.77;106971;1277;22650;-62
2023/06/20 06:20:19;;;;;;;25.20;14.40;;;;;;;22.24;76.99;100219.80;107024;1271;22573;-62
2023/06/20 06:22:50;;;;;;;23.70;13.80;;;;;;;22.36;76.81;100215.98;110248;1269;22223;-63
2023/06/20 06:25:21;;;;;;;21.80;13.00;;;;;;;22.46;75.94;100218.63;110272;1271;23059;-63
2023/06/20 06:27:52;;;;;;;23.40;13.70;;;;;;;22.53;75.51;100221.98;110232;1273;22144;-62
2023/06/20 06:30:23;;;;;;;22.00;13.40;;;;;;;22.59;75.20;100225.35;110249;1270;22839;-62
2023/06/20 06:32:55;;;;;;;23.30;13.40;;;;;;;22.71;75.51;100231.11;110268;1270;22188;-63
2023/06/20 06:35:26;;;;;;;23.70;12.80;;;;;;;22.82;74.85;100238.48;110262;1262;22193;-63
2023/06/20 06:37:57;;;;;;;24.10;13.40;;;;;;;22.92;74.56;100240.44;110250;1269;23391;-63
2023/06/20 06:40:28;;;;;;;22.70;13.70;;;;;;;23.02;74.53;100239.52;110226;1270;22927;-63
2023/06/20 06:42:59;;;;;;;25.00;12.30;;;;;;;23.11;74.16;100240.02;110259;1271;22200;-63
2023/06/20 06:45:32;;;;;;;22.40;12.20;;;;;;;23.19;73.54;100236.39;110205;1270;22318;-63
2023/06/20 06:48:03;;;;;;;20.80;12.30;;;;;;;23.29;73.43;100237.17;110239;1262;22119;-62
2023/06/20 06:50:34;;;;;;;25.10;11.20;;;;;;;23.41;73.26;100239.74;110254;1277;22322;-64
2023/06/20 06:53:05;;;;;;;25.30;11.60;;;;;;;23.54;72.87;100237.67;110263;1273;22136;-62
2023/06/20 06:55:36;;;;;;;23.10;12.00;;;;;;;23.65;72.51;100233.90;110295;1270;22323;-62
2023/06/20 06:58:07;;;;;;;20.10;11.30;;;;;;;23.76;71.73;100233.83;110284;1270;22273;-62
2023/06/20 07:00:38;;;;;;;20.60;11.20;;;;;;;23.84;71.29;100233.08;110279;1273;22233;-62
2023/06/20 07:03:10;;;;;;;18.00;9.50;;;;;;;23.89;70.57;100235.29;110261;1270;22353;-63
2023/06/20 07:05:43;;;;;;;19.10;9.40;;;;;;;23.97;70.35;100242.73;110266;1261;22360;-64
2023/06/20 07:08:14;;;;;;;19.90;10.00;;;;;;;24.07;70.32;100245.25;110244;1277;22215;-62
2023/06/20 07:10:47;;;;;;;22.50;10.30;;;;;;;24.13;70.12;100243.26;110267;1273;22299;-64
2023/06/20 07:13:18;;;;;;;19.90;10.40;;;;;;;24.23;69.77;100243.16;110275;1270;22183;-63
2023/06/20 07:15:49;;;;;;;22.70;9.80;;;;;;;24.35;69.34;100245.79;110301;1270;22118;-63
2023/06/20 07:18:20;;;;;;;19.20;9.30;;;;;;;24.43;69.15;100245.54;110295;1270;22163;-63
2023/06/20 07:20:51;;;;;;;18.70;9.50;;;;;;;24.51;68.01;100242.42;110233;1278;22125;-63
2023/06/20 07:23:22;;;;;;;20.10;9.70;;;;;;;24.54;67.96;100245.30;110273;1273;22222;-63
2023/06/20 07:25:53;;;;;;;20.80;8.90;;;;;;;24.61;67.66;100242.83;110269;1277;23045;-63
2023/06/20 07:28:25;;;;;;;18.60;9.90;;;;;;;24.70;67.25;100237.63;110286;1270;22215;-63
2023/06/20 07:30:56;;;;;;;17.00;8.90;;;;;;;24.79;67.33;100241.45;110281;1269;22116;-63
2023/06/20 07:33:27;;;;;;;14.80;8.20;;;;;;;24.87;66.94;100236.27;110115;1272;26556;-63
2023/06/20 07:36:00;;;;;;;19.20;9.10;;;;;;;24.99;66.81;100234.73;106560;1277;22527;-63
2023/06/20 07:38:31;;;;;;;19.30;9.80;;;;;;;25.11;66.72;100237.88;106411;1277;22580;-63
2023/06/20 07:41:02;;;;;;;20.30;9.40;;;;;;;25.22;65.96;100233.77;106466;1261;25648;-62
2023/06/20 07:43:33;;;;;;;18.90;8.60;;;;;;;25.27;65.70;100227.83;106524;1271;24208;-62
2023/06/20 07:46:04;;;;;;;19.90;10.50;;;;;;;25.36;65.34;100229.78;110245;1271;22285;-63
2023/06/20 07:48:35;;;;;;;15.80;8.80;;;;;;;25.48;65.67;100226.14;110265;1261;22205;-63
2023/06/20 07:51:06;;;;;;;17.50;8.90;;;;;;;25.60;64.84;100223.56;110265;1262;22326;-63
2023/06/20 07:53:38;;;;;;;17.00;9.50;;;;;;;25.69;64.35;100226.61;110290;1277;22300;-62
2023/06/20 07:56:10;;;;;;;19.00;8.80;;;;;;;25.75;64.10;100225.42;110265;1273;22208;-64
2023/06/20 07:58:41;;;;;;;17.00;9.20;;;;;;;25.80;63.41;100226.86;110275;1273;22202;-62
2023/06/20 08:01:13;;;;;;;14.30;8.10;;;;;;;25.85;62.96;100230.58;110227;1261;22218;-62
2023/06/20 08:03:45;;;;;;;18.70;9.60;;;;;;;25.92;62.71;100228.72;110280;1267;22964;-63
2023/06/20 08:06:16;;;;;;;17.30;9.10;;;;;;;26.00;62.25;100226.41;110231;1270;22196;-63
2023/06/20 08:08:47;;;;;;;18.30;9.70;;;;;;;26.07;62.31;100225.30;110260;1262;22307;-63
2023/06/20 08:11:22;;;;;;;17.20;8.60;;;;;;;26.17;62.07;100225.44;110312;1272;22568;-64
2023/06/20 08:13:53;;;;;;;13.20;7.80;;;;;;;26.22;61.11;100222.64;110269;1270;22124;-63
2023/06/20 08:16:24;;;;;;;17.00;7.90;;;;;;;26.26;61.24;100226.09;110280;1270;22877;-63
2023/06/20 08:18:55;;;;;;;16.70;8.60;;;;;;;26.34;60.87;100221.63;110269;1270;22107;-63
2023/06/20 08:21:26;;;;;;;17.50;9.00;;;;;;;26.44;60.64;100221.42;110281;1270;22349;-63
2023/06/20 08:23:57;;;;;;;14.90;8.00;;;;;;;26.52;60.11;100214.46;110274;1278;22232;-63
2023/06/20 08:26:28;;;;;;;20.80;9.00;;;;;;;26.58;59.97;100211.79;110271;1270;22242;-62
2023/06/20 08:28:59;;;;;;;12.60;6.60;;;;;;;26.63;59.50;100212.37;110266;1271;22594;-63
2023/06/20 08:31:36;;;;;;;17.80;7.60;;;;;;;26.69;59.28;100213.45;110260;1270;22295;-64
2023/06/20 08:34:07;;;;;;;11.80;6.50;;;;;;;26.77;58.87;100215.66;110300;1273;22267;-64
2023/06/20 08:36:38;;;;;;;14.40;7.20;;;;;;;26.85;58.36;100214.02;110277;1271;22288;-63
2023/06/20 08:39:09;;;;;;;15.50;7.00;;;;;;;26.91;57.87;100211.22;110267;1262;22276;-63
2023/06/20 08:41:40;;;;;;;15.30;8.20;;;;;;;26.96;57.78;100208.92;110262;1271;22184;-64
2023/06/20 08:44:13;;;;;;;14.30;7.00;;;;;;;27.06;57.80;100210.13;110272;1271;22190;-63
2023/06/20 08:46:45;;;;;;;13.80;6.70;;;;;;;27.16;57.21;100208.36;110232;1273;22325;-63
2023/06/20 08:49:16;;;;;;;12.60;6.80;;;;;;;27.27;56.91;100211.83;110244;1271;22143;-63
2023/06/20 08:51:49;;;;;;;16.90;7.10;;;;;;;27.38;56.39;100214.31;110289;1258;22163;-63
2023/06/20 08:54:22;;;;;;;15.10;7.00;;;;;;;27.48;55.91;100214.79;110283;1270;22274;-63
2023/06/20 08:56:54;;;;;;;15.10;7.30;;;;;;;27.57;54.93;100214.19;110264;1271;22152;-63
2023/06/20 08:59:25;;;;;;;16.20;7.10;;;;;;;27.59;55.45;100213.95;110238;1270;22402;-63
2023/06/20 09:01:57;;;;;;;15.10;7.00;;;;;;;27.73;55.55;100211.88;110290;1271;22155;-63
2023/06/20 09:04:29;;;;;;;12.30;6.40;;;;;;;27.86;54.82;100208.83;110269;1270;22393;-63
2023/06/20 09:07:01;;;;;;;13.70;7.10;;;;;;;27.96;54.55;100212.23;110268;1271;22156;-63
2023/06/20 09:09:39;;;;;;;12.00;6.00;;;;;;;28.08;54.14;100211.96;110248;1271;22336;-62
2023/06/20 09:12:11;;;;;;;16.50;7.00;;;;;;;28.16;53.72;100210.28;110258;1270;22753;-63
2023/06/20 09:14:42;;;;;;;16.30;7.00;;;;;;;28.22;53.35;100212.48;110266;1277;22346;-63
2023/06/20 09:17:14;;;;;;;14.90;6.50;;;;;;;28.29;53.19;100209.02;110281;1261;22414;-63
2023/06/20 09:19:47;;;;;;;10.70;5.50;;;;;;;28.35;53.08;100215.45;110253;1271;22899;-65
2023/06/20 09:22:19;;;;;;;12.50;5.30;;;;;;;28.42;51.61;100212.84;110241;1266;22248;-64
2023/06/20 09:24:51;;;;;;;13.90;5.60;;;;;;;28.51;51.82;100207.48;110247;1271;22259;-63
2023/06/20 09:27:22;;;;;;;12.60;6.00;;;;;;;28.61;51.80;100207.23;110256;1270;22946;-64
2023/06/20 09:30:00;;;;;;;13.70;5.80;;;;;;;28.71;50.91;100210.53;110276;1277;22152;-64
2023/06/20 09:32:36;;;;;;;13.00;5.50;;;;;;;28.83;50.90;100204.95;110242;1261;23201;-63
2023/06/20 09:35:09;;;;;;;12.10;5.30;;;;;;;28.94;50.29;100205.14;110260;1271;23003;-65
2023/06/20 09:37:42;;;;;;;12.30;4.90;;;;;;;29.02;49.79;100198.70;110286;1261;22850;-63
2023/06/20 09:40:15;;;;;;;15.10;6.00;;;;;;;29.08;49.16;100199.41;110260;1271;22724;-64
2023/06/20 09:42:48;;;;;;;11.90;5.20;;;;;;;29.15;48.95;100200.09;108715;1272;24221;-64
2023/06/20 09:45:19;;;;;;;13.20;6.20;;;;;;;29.23;48.79;100193.96;106458;1270;22534;-64
2023/06/20 09:47:51;;;;;;;14.40;5.50;;;;;;;29.30;48.07;100193.15;106451;1262;24212;-63
2023/06/20 09:50:24;;;;;;;13.90;5.50;;;;;;;29.38;47.91;100196.12;106473;1258;24228;-62
2023/06/20 09:53:03;;;;;;;11.80;4.70;;;;;;;29.43;47.23;100188.77;106340;1274;25355;-62
2023/06/20 09:55:36;;;;;;;12.60;5.70;;;;;;;29.48;46.85;100188.37;110253;1273;23127;-64
2023/06/20 09:58:08;;;;;;;13.40;5.80;;;;;;;29.52;46.98;100192.95;110236;1271;22198;-63
2023/06/20 10:00:40;;;;;;;18.60;6.60;;;;;;;29.59;46.91;100192.73;110266;1273;22394;-63
2023/06/20 10:03:13;;;;;;;11.30;5.20;;;;;;;29.67;46.58;100189.95;110282;1270;22361;-64
2023/06/20 10:05:47;;;;;;;12.40;5.00;;;;;;;29.66;46.12;100187.14;109408;1277;25056;-63
2023/06/20 10:08:19;;;;;;;13.70;5.90;;;;;;;29.72;46.34;100185.45;106422;1267;23000;-63
2023/06/20 10:10:51;;;;;;;13.00;6.30;;;;;;;29.80;46.17;100190.30;106273;1274;24560;-62
2023/06/20 10:13:22;;;;;;;13.30;6.30;;;;;;;29.84;45.97;100190.13;106238;1271;22527;-62
2023/06/20 10:15:59;;;;;;;15.80;6.20;;;;;;;29.86;45.45;100190.11;106323;1274;24217;-63
2023/06/20 10:18:38;;;;;;;13.20;5.90;;;;;;;29.85;45.01;100181.69;110244;1271;23025;-63
2023/06/20 10:21:13;;;;;;;13.00;5.50;;;;;;;29.85;45.24;100181.70;110238;1269;22433;-62
2023/06/20 10:23:46;;;;;;;11.40;5.50;;;;;;;29.90;44.88;100178.29;110243;1270;22135;-63
2023/06/20 10:26:17;;;;;;;11.40;5.20;;;;;;;29.90;44.59;100175.32;110241;1270;22818;-63
2023/06/20 10:28:59;;;;;;;11.20;5.70;;;;;;;29.96;44.65;100178.34;110245;1273;22203;-63
2023/06/20 10:31:56;;;;;;;9.70;4.70;;;;;;;30.05;43.88;100179.35;110231;1271;22332;-63
2023/06/20 10:34:41;;;;;;;11.80;6.00;;;;;;;30.15;43.13;100176.13;110233;1270;22230;-63
2023/06/20 10:37:16;;;;;;;10.60;4.90;;;;;;;30.12;42.78;100174.54;110223;1271;23002;-63
2023/06/20 10:39:58;;;;;;;11.70;4.50;;;;;;;30.14;42.71;100171.34;110233;1262;22296;-63
2023/06/20 10:42:43;;;;;;;11.30;5.20;;;;;;;30.22;42.87;100173.03;110206;1270;22174;-62
2023/06/20 10:45:22;;;;;;;11.00;5.00;;;;;;;30.32;42.70;100172.84;108835;1262;25271;-64
2023/06/20 10:47:54;;;;;;;14.00;4.70;;;;;;;30.39;41.95;100171.58;110225;1277;22188;-63
2023/06/20 10:50:28;;;;;;;11.80;5.10;;;;;;;30.44;41.96;100166.59;110237;1272;22930;-63
2023/06/20 10:53:03;;;;;;;10.90;5.10;;;;;;;30.52;41.64;100166.23;110265;1271;22166;-63
2023/06/20 10:55:39;;;;;;;10.90;4.30;;;;;;;30.56;41.32;100164.62;110232;1271;22263;-63
2023/06/20 10:58:10;;;;;;;12.80;5.30;;;;;;;30.59;41.18;100161.80;110265;1272;22221;-64
2023/06/20 11:00:41;;;;;;;13.20;4.90;;;;;;;30.60;40.90;100164.02;110246;1271;22261;-63
2023/06/20 11:03:13;;;;;;;11.50;4.80;;;;;;;30.61;40.63;100161.33;110232;1270;22442;-64
2023/06/20 11:05:50;;;;;;;10.00;4.10;;;;;;;30.61;40.47;100161.33;110268;1276;22376;-63
2023/06/20 11:08:26;;;;;;;9.50;4.50;;;;;;;30.64;40.41;100163.68;108037;1274;22513;-62
2023/06/20 11:11:05;;;;;;;10.70;4.90;;;;;;;30.68;40.22;100163.23;106311;1271;22520;-62
2023/06/20 11:13:42;;;;;;;11.50;3.70;;;;;;;30.66;39.33;100162.27;110256;1274;23254;-62
2023/06/20 11:16:26;;;;;;;12.50;4.80;;;;;;;30.60;39.25;100159.58;110224;1262;22822;-63
2023/06/20 11:18:59;;;;;;;9.60;4.40;;;;;;;30.66;39.84;100162.23;110239;1273;22856;-63
2023/06/20 11:21:31;;;;;;;10.30;4.60;;;;;;;30.79;39.78;100163.35;110226;1271;22237;-63
2023/06/20 11:24:03;;;;;;;9.00;3.70;;;;;;;30.87;39.23;100161.29;110265;1270;22856;-64
2023/06/20 11:26:35;;;;;;;11.60;5.20;;;;;;;30.89;39.27;100159.88;110266;1277;22954;-63
2023/06/20 11:29:06;;;;;;;9.90;5.00;;;;;;;30.95;39.18;100158.70;110272;1271;22204;-63